• Join FlightAware (Why Join?)
  • Login
  • US Flag 
08:40AM EST


 

Airport Tracker/Info


-or-


 

Live Flight TrackerFlight Track Log ✈ GJS3710 ✈ 01-May-2013 ✈ KORD - KALB

Flight Track Log - Related Links

Times and Time Zones

All times are in EDT time to prevent confusion due to time zone crossing. See the GJS3710 flight status page for this flight to view local times or setup timezone preferences in your user account.

Time Position Orientation Groundspeed Altitude Reporting Facility
EDT Latitude Longitude Course Direction KTS MPH feet Rate Location/Type
09:17PM 41.9333 -87.9000 66° East 170 196 2,200  Level Chicago TRACON
09:18PM 41.9167 -87.8333 109° East 206 237 4,500 2,220 Climbing Chicago TRACON
09:20PM 42.1524 -87.3929 66° East  Level FlightAware Approximate
09:20PM 41.8919 -87.6217 99° East 287 330 10,000  Level Chicago Center
09:21PM 42.1964 -87.2609 66° East  Level FlightAware Approximate
09:21PM 41.9536 -87.5125 53° Northeast 314 361 13,500  Level Chicago Center
09:22PM 42.2404 -87.1289 66° East  Level FlightAware Approximate
09:22PM 42.0139 -87.4258 47° Northeast 319 367 15,900  Level Chicago Center
09:24PM 42.0269 -87.3061 82° East 326 375 18,100 2,100 Climbing Chicago Center
09:25PM 42.0375 -87.1831 83° East 331 381 20,300 2,040 Climbing Chicago Center
09:26PM 42.0486 -87.0547 83° East 345 397 22,300 1,920 Climbing Chicago Center
09:27PM 42.0614 -86.9269 82° East 346 398 24,300 2,040 Climbing Chicago Center
09:28PM 42.0753 -86.7692 83° East 354 407 26,600 1,740 Climbing Chicago Center
09:29PM 42.0864 -86.6308 84° East 361 415 28,000 1,260 Climbing Chicago Center
09:30PM 42.0981 -86.4911 84° East 374 430 29,200 1,080 Climbing Chicago Center
09:31PM 42.1111 -86.3467 83° East 386 444 30,300 1,140 Climbing Chicago Center
09:32PM 42.1247 -86.1975 83° East 399 459 31,600 1,140 Climbing Chicago Center
09:33PM 42.1361 -86.0481 84° East 400 460 32,700 660 Climbing Chicago Center
09:34PM 42.1506 -85.8758 83° East 410 472 33,000 120 Climbing Chicago Center
09:35PM 42.1636 -85.7094 84° East 435 501 33,000 420 Level Chicago Center
09:36PM 42.1761 -85.5478 84° East 445 512 33,900 960 Climbing Chicago Center
09:37PM 42.1897 -85.3875 83° East 437 503 35,000 960 Climbing Chicago Center
09:37PM 42.1989 -85.2956 82° East 445 512 35,500 840 Climbing Cleveland Center
09:38PM 42.2117 -85.1336 84° East 439 505 36,400 780 Climbing Cleveland Center
09:39PM 42.2242 -84.9747 84° East 434 499 37,100 600 Climbing Cleveland Center
09:40PM 42.2303 -84.8069 87° East 440 506 37,600 480 Climbing Cleveland Center
09:41PM 42.2431 -84.6308 84° East 435 501 38,100 480 Climbing Cleveland Center
09:42PM 42.2531 -84.4631 85° East 440 506 38,600 420 Climbing Cleveland Center
09:43PM 42.2647 -84.2983 84° East 440 506 39,000 180 Climbing Cleveland Center
09:44PM 42.2761 -84.1306 85° East 440 506 39,000  Level Cleveland Center
09:45PM 42.2875 -83.9656 85° East 440 506 39,000  Level Cleveland Center
09:46PM 42.2983 -83.8003 85° East 440 506 39,000  Level Cleveland Center
09:47PM 42.3092 -83.6353 85° East 434 499 39,000  Level Cleveland Center
09:48PM 42.3172 -83.4869 86° East 441 507 39,000  Level Cleveland Center
09:49PM 42.3253 -83.3242 86° East 436 502 39,000  Level Cleveland Center
09:50PM 42.3356 -83.1561 85° East 436 502 39,000  Level Cleveland Center
09:51PM 42.3453 -82.9936 85° East 436 502 39,000  Level Cleveland Center
09:52PM 42.3528 -82.8367 86° East 436 502 39,000  Level Cleveland Center
09:53PM 42.3619 -82.6767 86° East 431 496 39,000  Level Cleveland Center
09:54PM 42.3689 -82.5139 87° East 431 496 39,000  Level Cleveland Center
09:55PM 42.3778 -82.3483 86° East 426 490 39,000  Level Cleveland Center
09:56PM 42.3864 -82.1883 86° East 426 490 39,000  Level Cleveland Center
09:57PM 42.3972 -82.0086 85° East 426 490 39,000  Level Cleveland Center
09:58PM 42.4033 -81.8456 87° East 426 490 39,000  Level Cleveland Center
09:59PM 42.4108 -81.7053 86° East 426 490 39,000  Level Cleveland Center
10:00PM 42.4186 -81.5422 86° East 426 490 39,000  Level Cleveland Center
10:01PM 42.4242 -81.3792 87° East 426 490 39,000  Level Cleveland Center
10:02PM 42.4292 -81.2133 88° East 431 496 39,000  Level Cleveland Center
10:03PM 42.4383 -81.0503 86° East 431 496 39,000  Level Cleveland Center
10:04PM 42.4453 -80.8731 87° East 431 496 39,000  Level Cleveland Center
10:05PM 42.4497 -80.7097 88° East 441 507 39,000  Level Cleveland Center
10:06PM 42.4603 -80.5408 85° East 441 507 39,000  Level Cleveland Center
10:07PM 42.4725 -80.3778 84° East 441 507 39,000  Level Cleveland Center
10:08PM 42.4847 -80.2144 84° East 441 507 39,000  Level Cleveland Center
10:09PM 42.4964 -80.0508 84° East 441 507 39,000  Level Cleveland Center
10:10PM 42.5081 -79.8847 85° East 441 507 39,000  Level Cleveland Center
10:11PM 42.5194 -79.7183 85° East 441 507 39,000  Level Cleveland Center
10:12PM 42.5286 -79.5547 86° East 441 507 39,000  Level Cleveland Center
10:13PM 42.5417 -79.3911 84° East 441 507 39,000  Level Cleveland Center
10:14PM 42.5522 -79.2247 85° East 441 507 39,000  Level Cleveland Center
10:15PM 42.5606 -79.0611 86° East 441 507 39,000 -300 Level Cleveland Center
10:16PM 42.5708 -78.8944 85° East 441 507 38,400 -840 Descending Cleveland Center
10:17PM 42.5808 -78.7250 85° East 446 513 37,400 -1,260 Descending Cleveland Center
10:18PM 42.5883 -78.5611 86° East 440 506 35,900 -1,500 Descending Cleveland Center
10:19PM 42.5981 -78.4028 85° East 435 501 34,400 -1,380 Descending Cleveland Center
10:20PM 42.6056 -78.2475 86° East 424 488 33,200 -720 Descending Cleveland Center
10:21PM 42.6147 -78.0947 85° East 414 476 33,000 -120 Descending Cleveland Center
10:22PM 42.6217 -77.9336 87° East 414 476 33,000 -420 Level Cleveland Center
10:23PM 42.6303 -77.7781 86° East 414 476 32,200 -900 Descending Cleveland Center
10:24PM 42.6347 -77.6142 88° East 420 483 31,200 -1,020 Descending Cleveland Center
10:25PM 42.6431 -77.4583 86° East 425 489 30,200 -720 Descending Cleveland Center
10:28PM 42.6594 -77.0939 86° East 418 481 29,000 -420 Descending Boston Center
10:29PM 42.6636 -76.9358 88° East 418 481 29,000  Level Boston Center
10:30PM 42.6697 -76.7808 87° East 418 481 29,000  Level Boston Center
10:31PM 42.6778 -76.6233 86° East 418 481 29,000  Level Boston Center
10:32PM 42.6836 -76.4597 87° East 423 487 29,000  Level Boston Center
10:33PM 42.6894 -76.2961 87° East 423 487 29,000  Level Boston Center
10:34PM 42.6964 -76.1497 86° East 423 487 29,000  Level Boston Center
10:35PM 42.6992 -75.9917 89° East 423 487 29,000  Level Boston Center
10:36PM 42.7061 -75.8308 87° East 418 481 29,000  Level Boston Center
10:37PM 42.7108 -75.6758 88° East 418 481 29,000 -600 Level Boston Center
10:38PM 42.7131 -75.5175 89° East 418 481 27,800 -1,860 Descending Boston Center
10:39PM 42.7172 -75.3650 88° East 418 481 25,300 -2,520 Descending Boston Center
10:40PM 42.7228 -75.2211 87° East 396 456 22,800 -2,520 Descending Boston Center
10:41PM 42.7261 -75.0828 88° East 380 437 20,300 -2,460 Descending Boston Center
10:42PM 42.7272 -74.9444 89° East 356 410 18,000 -2,580 Descending Boston Center
10:42PM 42.7306 -74.8850 86° East 344 396 16,800 -2,700 Descending Boston Center
10:43PM 42.7322 -74.8061 88° East 347 399 15,300 -2,400 Descending Boston Center
10:43PM 42.7311 -74.7608 92° East 332 382 14,400 -2,340 Descending Boston Center
10:44PM 42.7347 -74.6844 86° East 333 383 13,000 -2,520 Descending Boston Center
10:44PM 42.7356 -74.6394 89° East 322 371 11,900 -1,920 Descending Boston Center
10:45PM 42.7369 -74.5658 89° East 317 365 11,100 -900 Descending Boston Center
10:45PM 42.7378 -74.5264 88° East 291 335 11,000 -540 Descending Boston Center
10:46PM 42.7450 -74.4700 80° East 280 322 10,600 -1,020 Descending Boston Center
10:46PM 42.7581 -74.4336 64° Northeast 242 278 10,000 -1,440 Descending Boston Center
10:47PM 42.7756 -74.3806 66° East 249 287 9,200 -1,320 Descending Boston Center
10:47PM 42.7889 -74.3414 65° Northeast 266 306 8,700 -1,200 Descending Boston Center
10:48PM 42.8044 -74.2822 70° East 261 300 8,000 -1,320 Descending Boston Center
10:48PM 42.8175 -74.2431 66° East 288 331 7,400 -1,440 Descending Boston Center
10:49PM 42.8247 -74.1811 81° East 271 312 6,600 -1,440 Descending Boston Center
10:49PM 42.8294 -74.1417 81° East 270 311 6,000 -1,440 Descending Boston Center
10:50PM 42.8303 -74.0822 89° East 265 305 5,200 -1,680 Descending Boston Center
10:50PM 42.8331 -74.0369 85° East 258 297 4,300 -1,620 Descending Boston Center
10:51PM 42.8358 -73.9917 85° East 252 290 3,600 -1,080 Descending Boston Center
10:51PM 42.8408 -73.9381 83° East 242 278 3,100 -600 Descending Boston Center
10:52PM 42.8433 -73.9042 84° East 245 282 3,000 -600 Descending Boston Center
10:52PM 42.8481 -73.8589 82° East 194 223 2,500  Descending Boston Center
10:53PM 42.8506 -73.8164 85° East 245 282 3,000 -900 Climbing Boston Center
10:53PM 42.8297 -73.8131 173° South 151 174 1,700 -1,260 Descending Boston Center
10:54PM 42.7903 -73.8094 176° South 106 122 1,000 -660 Descending Boston Center